Time;durP1;ratioP1;P1;durP2;ratioP2;P2;SDS_P1;SDS_P2;PMS_P1;PMS_P2;Temp;Humidity;BMP_temperature;BMP_pressure;BME280_temperature;BME280_humidity;BME280_pressure;Samples;Min_cycle;Max_cycle;Signal;HPM_P1;HPM_P2
2021/08/05 00:00:52;;;;;;;1.88;1.77;;;;;;;16.62;69.76;101650.50;5961400;30;20261;-75
2021/08/05 00:03:56;;;;;;;1.90;1.75;;;;;;;16.60;69.61;101647.16;5960989;30;20239;-75
2021/08/05 00:07:01;;;;;;;1.58;1.58;;;;;;;16.61;69.99;101644.19;5961278;30;20193;-75
2021/08/05 00:10:06;;;;;;;2.05;1.65;;;;;;;16.54;70.37;101642.59;5961625;30;20193;-75
2021/08/05 00:13:12;;;;;;;2.00;1.90;;;;;;;16.37;71.12;101641.56;5960045;30;20217;-75
2021/08/05 00:16:16;;;;;;;1.70;1.70;;;;;;;16.36;71.67;101645.41;5961127;30;20295;-75
2021/08/05 00:19:20;;;;;;;1.70;1.63;;;;;;;16.40;71.10;101641.09;5960870;30;20299;-75
2021/08/05 00:22:25;;;;;;;2.28;1.80;;;;;;;16.36;71.52;101639.91;5960045;30;20198;-75
2021/08/05 00:25:29;;;;;;;1.85;1.70;;;;;;;16.31;71.15;101648.03;5961147;30;20194;-75
2021/08/05 00:28:35;;;;;;;1.55;1.52;;;;;;;16.35;71.40;101643.72;5960796;30;20194;-75
2021/08/05 00:31:40;;;;;;;2.75;1.65;;;;;;;16.34;71.88;101642.03;5960516;30;20296;-75
2021/08/05 00:34:44;;;;;;;1.80;1.70;;;;;;;16.25;71.86;101644.28;5960137;30;20242;-75
2021/08/05 00:37:48;;;;;;;2.60;2.03;;;;;;;16.18;72.59;101633.38;5959678;30;20197;-75
2021/08/05 00:40:53;;;;;;;1.92;1.83;;;;;;;16.18;72.54;101638.88;5958822;30;20428;-75
2021/08/05 00:44:00;;;;;;;1.80;1.80;;;;;;;16.05;73.08;101644.56;5960543;29;20233;-75
2021/08/05 00:47:05;;;;;;;1.35;1.35;;;;;;;16.08;73.13;101644.09;5959038;29;20218;-75
2021/08/05 00:50:11;;;;;;;3.15;1.70;;;;;;;16.15;73.22;101642.09;5959635;30;20549;-75
2021/08/05 00:53:16;;;;;;;1.63;1.60;;;;;;;16.13;73.25;101646.16;5960500;30;20221;-75
2021/08/05 00:56:20;;;;;;;2.67;1.58;;;;;;;16.10;74.22;101644.72;5958982;29;20489;-75
2021/08/05 00:59:26;;;;;;;1.98;1.88;;;;;;;16.24;73.48;101642.59;5958749;30;20249;-76
2021/08/05 01:02:38;;;;;;;1.73;1.73;;;;;;;16.20;73.85;101646.91;5958018;29;20323;-75
2021/08/05 01:05:49;;;;;;;2.00;1.90;;;;;;;16.16;73.72;101641.03;5959048;30;20302;-76
2021/08/05 01:09:03;;;;;;;2.13;1.77;;;;;;;16.13;74.49;101658.00;5959265;30;20225;-75
2021/08/05 01:12:19;;;;;;;1.77;1.77;;;;;;;16.06;75.34;101646.25;5958165;29;20528;-75
2021/08/05 01:15:26;;;;;;;1.80;1.80;;;;;;;16.15;74.53;101657.78;5960320;30;20200;-76
2021/08/05 01:18:33;;;;;;;1.77;1.77;;;;;;;16.03;75.14;101646.72;5958100;30;20398;-76
2021/08/05 01:21:51;;;;;;;1.60;1.60;;;;;;;16.07;75.49;101653.47;5958928;30;20225;-76
2021/08/05 01:25:02;;;;;;;2.25;2.13;;;;;;;16.04;75.38;101653.91;5958258;30;20217;-76
2021/08/05 01:28:11;;;;;;;2.83;2.33;;;;;;;16.05;75.44;101650.06;5958425;29;20216;-76
2021/08/05 01:31:21;;;;;;;1.65;1.58;;;;;;;16.06;75.13;101650.91;5959520;30;20200;-76
2021/08/05 01:34:28;;;;;;;1.90;1.80;;;;;;;16.08;75.02;101657.88;5959808;30;20228;-76
2021/08/05 01:37:33;;;;;;;1.60;1.60;;;;;;;16.10;75.34;101658.47;5959470;30;20232;-75
2021/08/05 01:40:38;;;;;;;1.50;1.50;;;;;;;16.06;75.62;101662.78;5958472;29;20217;-75
2021/08/05 01:43:45;;;;;;;1.52;1.52;;;;;;;16.02;76.11;101656.03;5959725;29;20306;-75
2021/08/05 01:46:50;;;;;;;1.90;1.80;;;;;;;16.00;76.52;101652.69;5957706;29;20209;-75
2021/08/05 01:49:54;;;;;;;1.92;1.90;;;;;;;16.03;76.44;101656.88;5959508;30;20229;-75
2021/08/05 01:52:59;;;;;;;1.90;1.90;;;;;;;16.04;76.44;101659.44;5959325;30;20217;-75
2021/08/05 01:56:03;;;;;;;2.00;1.90;;;;;;;16.02;76.75;101650.53;5959353;30;20194;-75
2021/08/05 01:59:09;;;;;;;2.50;1.83;;;;;;;16.01;77.08;101659.88;5956651;29;20405;-75
2021/08/05 02:02:14;;;;;;;1.83;1.80;;;;;;;15.97;77.16;101647.66;5957467;30;20389;-76
2021/08/05 02:05:24;;;;;;;1.95;1.85;;;;;;;15.89;78.31;101649.91;5958044;30;20233;-76
2021/08/05 02:08:38;;;;;;;2.03;1.98;;;;;;;15.79;78.54;101650.47;5957365;30;20389;-75
2021/08/05 02:11:48;;;;;;;1.80;1.70;;;;;;;15.79;78.69;101647.72;5957530;29;20346;-76
2021/08/05 02:14:55;;;;;;;1.58;1.58;;;;;;;15.82;77.71;101638.97;5957889;30;20311;-76
2021/08/05 02:17:59;;;;;;;1.73;1.70;;;;;;;15.73;77.96;101645.88;5957619;30;20210;-76
2021/08/05 02:21:06;;;;;;;2.08;2.00;;;;;;;15.78;77.53;101643.25;5957441;30;20527;-76
2021/08/05 02:24:14;;;;;;;2.10;2.10;;;;;;;15.87;77.85;101652.88;5956790;29;20568;-75
2021/08/05 02:27:19;;;;;;;2.28;2.20;;;;;;;15.85;77.57;101660.53;5958743;30;20225;-76
2021/08/05 02:30:26;;;;;;;1.77;1.77;;;;;;;15.83;77.82;101662.66;5957188;29;20267;-75
2021/08/05 02:33:32;;;;;;;1.90;1.80;;;;;;;15.81;77.85;101652.97;5956744;30;20531;-76
2021/08/05 02:36:37;;;;;;;1.77;1.77;;;;;;;15.72;78.55;101654.34;5958555;30;20201;-75
2021/08/05 02:39:41;;;;;;;2.00;1.90;;;;;;;15.70;78.57;101662.84;5956476;30;20285;-76
2021/08/05 02:42:47;;;;;;;2.17;2.17;;;;;;;15.72;78.89;101663.44;5956894;29;20238;-75
2021/08/05 02:45:53;;;;;;;1.90;1.90;;;;;;;15.76;78.44;101661.91;5958398;30;20197;-76
2021/08/05 02:48:59;;;;;;;1.63;1.60;;;;;;;15.75;78.36;101660.22;5957039;30;20212;-76
2021/08/05 02:52:04;;;;;;;2.00;2.00;;;;;;;15.69;78.61;101661.16;5956407;29;20309;-76
2021/08/05 02:55:10;;;;;;;2.05;1.95;;;;;;;15.69;78.60;101663.91;5957255;30;20244;-76
2021/08/05 02:58:19;;;;;;;2.50;1.83;;;;;;;15.70;78.91;101662.84;5956507;30;20277;-76
2021/08/05 03:01:26;;;;;;;1.83;1.83;;;;;;;15.68;78.59;101653.97;5956632;29;20501;-76
2021/08/05 03:04:34;;;;;;;1.95;1.88;;;;;;;15.64;79.41;101664.59;5957675;30;20246;-76
2021/08/05 03:07:38;;;;;;;1.83;1.80;;;;;;;15.69;78.34;101672.16;5957750;30;20262;-76
2021/08/05 03:10:42;;;;;;;2.15;2.10;;;;;;;15.72;77.48;101660.69;5957740;30;20201;-75
2021/08/05 03:13:49;;;;;;;1.98;1.65;;;;;;;15.69;77.08;101649.31;5958029;30;20221;-75
2021/08/05 03:16:57;;;;;;;5.95;1.77;;;;;;;15.61;78.12;101655.97;5957648;30;20193;-76
2021/08/05 03:20:01;;;;;;;2.40;2.20;;;;;;;15.50;78.32;101659.50;5957542;30;20235;-75
2021/08/05 03:23:06;;;;;;;3.88;2.00;;;;;;;15.45;78.65;101664.81;5957512;30;20193;-75
2021/08/05 03:26:10;;;;;;;2.35;2.17;;;;;;;15.49;78.59;101661.41;5957868;30;20200;-76
2021/08/05 03:29:14;;;;;;;2.08;2.08;;;;;;;15.45;79.47;101648.31;5956686;30;20194;-76
2021/08/05 03:32:23;;;;;;;2.10;2.00;;;;;;;15.48;79.36;101653.38;5956801;30;20201;-75
2021/08/05 03:35:27;;;;;;;1.90;1.90;;;;;;;15.54;78.89;101657.94;5956507;30;20221;-76
2021/08/05 03:38:31;;;;;;;2.03;1.95;;;;;;;15.52;78.85;101665.59;5957528;30;20243;-76
2021/08/05 03:41:35;;;;;;;2.40;2.00;;;;;;;15.53;78.90;101667.28;5957376;30;20193;-75
2021/08/05 03:44:39;;;;;;;2.78;2.10;;;;;;;15.60;78.22;101665.28;5956463;30;20197;-76
2021/08/05 03:47:45;;;;;;;2.13;2.03;;;;;;;15.68;78.36;101673.25;5957390;30;20194;-75
2021/08/05 03:50:50;;;;;;;2.05;1.95;;;;;;;15.75;77.94;101671.22;5957279;29;20257;-75
2021/08/05 03:53:54;;;;;;;1.95;1.90;;;;;;;15.75;78.06;101670.38;5956315;30;20528;-76
2021/08/05 03:56:58;;;;;;;1.90;1.90;;;;;;;15.74;78.09;101664.03;5956154;30;20380;-75
2021/08/05 04:00:06;;;;;;;2.10;2.00;;;;;;;15.73;78.07;101659.63;5957172;29;20194;-75
2021/08/05 04:03:20;;;;;;;2.00;1.90;;;;;;;15.77;78.29;101674.59;5957168;30;20233;-75
2021/08/05 04:06:24;;;;;;;4.30;2.35;;;;;;;15.76;78.36;101667.44;5956150;30;20245;-75
2021/08/05 04:09:28;;;;;;;2.10;2.00;;;;;;;15.83;77.86;101659.91;5957178;30;20228;-75
2021/08/05 04:12:33;;;;;;;2.10;2.00;;;;;;;15.85;78.07;101660.53;5956395;30;20193;-75
2021/08/05 04:15:37;;;;;;;2.10;2.10;;;;;;;15.85;78.33;101666.03;5957243;30;20299;-75
2021/08/05 04:18:43;;;;;;;2.05;1.95;;;;;;;15.90;78.25;101663.41;5957026;30;20198;-75
2021/08/05 04:21:50;;;;;;;1.95;1.80;;;;;;;15.89;78.57;101666.41;5957572;29;20194;-75
2021/08/05 04:24:54;;;;;;;2.10;2.00;;;;;;;15.87;79.20;101665.81;5960074;30;20197;-75
2021/08/05 04:28:00;;;;;;;2.05;2.05;;;;;;;15.90;79.09;101660.66;5960192;29;20193;-76
2021/08/05 04:31:07;;;;;;;4.38;2.13;;;;;;;15.94;78.95;101664.66;5961155;29;20193;-76
2021/08/05 04:34:14;;;;;;;2.40;1.80;;;;;;;15.92;79.52;101666.78;5960814;30;20217;-75
2021/08/05 04:37:21;;;;;;;1.92;1.92;;;;;;;15.98;79.49;101667.75;5959745;29;20540;-75
2021/08/05 04:40:26;;;;;;;4.38;2.10;;;;;;;16.05;79.07;101672.09;5960331;29;20261;-75
2021/08/05 04:43:30;;;;;;;1.70;1.70;;;;;;;16.03;79.95;101674.25;5959797;30;20225;-75
2021/08/05 04:46:35;;;;;;;3.63;2.05;;;;;;;16.14;78.98;101670.72;5960582;30;20200;-75
2021/08/05 04:49:41;;;;;;;1.70;1.70;;;;;;;16.18;78.88;101671.91;5959933;29;20425;-76
2021/08/05 04:52:45;;;;;;;2.03;2.03;;;;;;;16.20;78.59;101669.75;5959445;30;20513;-75
2021/08/05 04:55:52;;;;;;;2.13;2.03;;;;;;;16.17;80.04;101670.25;5959427;30;20639;-76
2021/08/05 04:58:56;;;;;;;2.10;2.10;;;;;;;16.25;79.06;101680.91;5959378;29;20194;-76
2021/08/05 05:02:00;;;;;;;2.30;2.20;;;;;;;16.31;79.02;101672.81;5960455;29;20210;-75
2021/08/05 05:05:07;;;;;;;1.80;1.80;;;;;;;16.31;79.30;101670.06;5960033;29;20245;-75
2021/08/05 05:08:16;;;;;;;2.00;1.90;;;;;;;16.35;79.13;101676.75;5960357;30;20194;-75
2021/08/05 05:11:23;;;;;;;2.10;2.00;;;;;;;16.38;79.05;101679.06;5959617;30;20201;-76
2021/08/05 05:14:30;;;;;;;3.80;2.00;;;;;;;16.42;78.99;101660.97;5960072;30;20228;-76
2021/08/05 05:17:34;;;;;;;2.13;2.00;;;;;;;16.50;78.95;101664.25;5959417;30;20200;-75
2021/08/05 05:20:42;;;;;;;3.65;2.30;;;;;;;16.54;79.25;101681.16;5958962;29;20505;-75
2021/08/05 05:23:47;;;;;;;2.03;2.03;;;;;;;16.61;78.07;101670.88;5958810;30;20457;-75
2021/08/05 05:26:51;;;;;;;1.80;1.80;;;;;;;16.67;78.62;101669.91;5960009;30;20208;-75
2021/08/05 05:29:59;;;;;;;3.65;1.90;;;;;;;16.67;78.81;101675.44;5959936;30;20258;-75
2021/08/05 05:33:04;;;;;;;4.45;2.08;;;;;;;16.73;78.05;101671.72;5958335;29;20244;-75
2021/08/05 05:36:09;;;;;;;2.90;2.22;;;;;;;16.72;78.04;101673.66;5958648;30;20217;-75
2021/08/05 05:39:15;;;;;;;1.75;1.70;;;;;;;16.84;77.82;101671.78;5959363;30;20233;-74
2021/08/05 05:42:20;;;;;;;1.65;1.65;;;;;;;16.94;76.40;101668.41;5959651;30;20290;-76
2021/08/05 05:45:25;;;;;;;1.70;1.70;;;;;;;17.00;76.21;101664.69;5959479;30;20276;-75
2021/08/05 05:48:29;;;;;;;1.80;1.73;;;;;;;17.06;76.04;101669.25;5958800;30;20193;-75
2021/08/05 05:51:35;;;;;;;1.70;1.60;;;;;;;17.19;75.81;101669.00;5959075;30;20255;-75
2021/08/05 05:54:41;;;;;;;1.67;1.45;;;;;;;17.22;74.96;101665.78;5958022;30;20528;-75
2021/08/05 05:57:46;;;;;;;1.40;1.40;;;;;;;17.35;74.47;101671.03;5958403;30;20193;-75
2021/08/05 06:00:53;;;;;;;2.67;1.40;;;;;;;17.49;74.12;101666.91;5958663;30;20290;-75
2021/08/05 06:03:57;;;;;;;1.75;1.65;;;;;;;17.62;73.32;101665.00;5957805;30;20233;-76
2021/08/05 06:07:03;;;;;;;1.30;1.30;;;;;;;17.76;72.57;101663.66;5913557;30;20434;-75
2021/08/05 06:10:09;;;;;;;1.85;1.42;;;;;;;17.82;73.21;101666.28;5913628;30;20317;-75
2021/08/05 06:13:15;;;;;;;1.73;1.70;;;;;;;17.98;73.07;101667.41;5914453;30;20308;-75
2021/08/05 06:16:19;;;;;;;1.60;1.60;;;;;;;18.07;72.48;101671.47;5914343;30;20223;-75
2021/08/05 06:19:23;;;;;;;1.45;1.45;;;;;;;18.21;71.38;101667.31;5914168;30;20195;-76
2021/08/05 06:22:29;;;;;;;4.63;1.38;;;;;;;18.39;71.05;101661.59;5914864;30;20289;-75
2021/08/05 06:25:33;;;;;;;1.60;1.60;;;;;;;18.47;70.97;101658.44;5913315;30;20538;-76
2021/08/05 06:28:38;;;;;;;3.13;1.38;;;;;;;18.61;70.77;101662.59;5914472;30;20226;-76
2021/08/05 06:31:42;;;;;;;2.50;1.60;;;;;;;18.75;69.50;101669.44;5912954;30;20225;-75
2021/08/05 06:34:46;;;;;;;1.60;1.60;;;;;;;18.88;69.64;101672.94;5914265;30;20195;-75
2021/08/05 06:37:52;;;;;;;1.90;1.80;;;;;;;18.98;67.38;101679.50;5914124;30;20274;-75
2021/08/05 06:40:57;;;;;;;1.50;1.50;;;;;;;19.04;66.58;101677.66;5913762;30;20222;-75
2021/08/05 06:44:02;;;;;;;1.65;1.40;;;;;;;19.12;66.24;101674.47;5914073;30;20195;-75
2021/08/05 06:47:07;;;;;;;1.67;1.60;;;;;;;19.28;65.36;101674.41;5912913;30;20203;-76
2021/08/05 06:50:13;;;;;;;1.40;1.40;;;;;;;19.32;65.42;101677.53;5912617;30;20202;-76
2021/08/05 06:53:20;;;;;;;1.70;1.70;;;;;;;19.47;65.13;101665.84;5913811;30;20202;-76
2021/08/05 06:56:25;;;;;;;1.35;1.35;;;;;;;19.59;65.64;101680.44;5913409;30;20222;-76
2021/08/05 06:59:29;;;;;;;1.52;1.52;;;;;;;19.72;64.01;101675.34;5913237;30;20195;-76
2021/08/05 07:02:33;;;;;;;1.20;1.20;;;;;;;19.81;63.68;101679.34;5913704;30;20214;-75
2021/08/05 07:05:38;;;;;;;1.35;1.30;;;;;;;19.84;63.66;101670.53;5935980;30;20413;-75
2021/08/05 07:08:43;;;;;;;1.50;1.50;;;;;;;20.02;64.26;101674.88;5956896;30;20481;-74
2021/08/05 07:11:49;;;;;;;3.20;1.50;;;;;;;20.00;62.48;101675.13;5957376;30;20193;-75
2021/08/05 07:14:53;;;;;;;1.95;1.60;;;;;;;19.95;59.72;101677.84;5957413;30;20251;-75
2021/08/05 07:18:00;;;;;;;1.48;1.27;;;;;;;20.07;58.88;101674.94;5957289;30;20292;-75
2021/08/05 07:21:04;;;;;;;1.40;1.30;;;;;;;20.22;58.61;101682.56;5957450;30;20194;-75
2021/08/05 07:24:12;;;;;;;1.42;1.25;;;;;;;20.32;57.74;101679.94;5956497;30;20269;-75
2021/08/05 07:27:16;;;;;;;1.30;1.17;;;;;;;20.41;58.40;101678.38;5957624;30;20316;-75
2021/08/05 07:30:20;;;;;;;1.25;1.25;;;;;;;20.41;55.99;101678.38;5956478;30;20493;-75
2021/08/05 07:33:25;;;;;;;1.20;1.20;;;;;;;20.34;56.28;101684.13;5956319;30;20427;-75
2021/08/05 07:36:31;;;;;;;2.08;1.30;;;;;;;20.43;57.18;101676.19;5956755;30;20249;-75
2021/08/05 07:39:40;;;;;;;1.33;1.33;;;;;;;20.58;56.37;101681.88;5956359;30;20231;-76
2021/08/05 07:42:44;;;;;;;1.45;1.38;;;;;;;20.68;55.51;101678.34;5957184;30;20194;-75
2021/08/05 07:45:48;;;;;;;1.20;1.20;;;;;;;20.66;54.39;101686.94;5957606;30;20238;-75
2021/08/05 07:48:52;;;;;;;4.32;1.23;;;;;;;20.62;55.04;101685.78;5957108;30;20232;-75
2021/08/05 07:52:00;;;;;;;1.00;1.00;;;;;;;20.64;54.92;101693.84;5956142;30;20533;-77
2021/08/05 07:55:07;;;;;;;1.40;1.40;;;;;;;20.73;55.32;101687.56;5956778;30;20194;-76
2021/08/05 07:58:12;;;;;;;1.20;1.20;;;;;;;20.74;55.47;101683.69;5959330;29;20229;-76
2021/08/05 08:01:17;;;;;;;1.40;1.40;;;;;;;20.78;56.04;101684.00;5961663;30;20194;-75
2021/08/05 08:04:22;;;;;;;1.45;1.45;;;;;;;20.86;53.21;101681.56;5960609;30;20320;-75
2021/08/05 08:07:26;;;;;;;2.92;1.23;;;;;;;20.94;52.48;101689.41;5960498;30;20235;-75
2021/08/05 08:10:33;;;;;;;1.00;1.00;;;;;;;20.86;53.40;101681.56;5960710;29;20256;-75
2021/08/05 08:13:57;;;;;;;1.20;1.20;;;;;;;20.88;53.89;101682.13;5961091;30;20194;-75
2021/08/05 08:17:02;;;;;;;1.13;1.13;;;;;;;20.87;53.92;101674.94;5961483;30;20224;-75
2021/08/05 08:20:13;;;;;;;3.13;1.38;;;;;;;20.65;54.26;101668.63;5961293;29;20194;-76
2021/08/05 08:23:17;;;;;;;2.47;1.25;;;;;;;20.80;53.60;101670.72;5960074;30;20542;-76
2021/08/05 08:26:25;;;;;;;4.18;1.17;;;;;;;20.83;52.91;101676.56;5961147;30;20239;-75
2021/08/05 08:29:29;;;;;;;1.23;1.13;;;;;;;20.76;52.37;101675.94;5961195;30;20205;-76
2021/08/05 08:32:33;;;;;;;1.30;1.20;;;;;;;20.75;51.14;101674.25;5960348;29;20194;-76
2021/08/05 08:35:37;;;;;;;1.30;1.30;;;;;;;20.74;52.48;101677.31;5959654;30;20534;-76
2021/08/05 08:38:43;;;;;;;1.42;1.30;;;;;;;20.70;51.98;101673.41;5959677;30;20285;-75
2021/08/05 08:41:49;;;;;;;4.57;1.00;;;;;;;20.70;52.33;101654.81;5960835;30;20257;-76
2021/08/05 08:44:53;;;;;;;1.10;1.10;;;;;;;20.73;52.13;101654.28;5960911;30;20225;-76
2021/08/05 08:48:00;;;;;;;1.08;1.00;;;;;;;20.82;51.64;101662.97;5959429;30;20197;-76
2021/08/05 08:51:05;;;;;;;1.08;1.05;;;;;;;20.89;51.11;101663.56;5959543;30;20194;-76
2021/08/05 08:54:10;;;;;;;3.15;1.05;;;;;;;21.05;50.78;101657.88;5960656;30;20221;-76
2021/08/05 08:57:20;;;;;;;1.00;0.95;;;;;;;21.05;49.43;101668.97;5960414;30;20217;-76
2021/08/05 09:00:25;;;;;;;3.70;0.90;;;;;;;21.11;49.08;101656.81;5959380;30;20201;-76
2021/08/05 09:03:29;;;;;;;1.15;1.15;;;;;;;21.17;49.44;101655.75;5960188;30;20209;-75
2021/08/05 09:06:35;;;;;;;1.20;1.20;;;;;;;21.19;48.59;101659.09;5959005;30;20441;-76
2021/08/05 09:09:39;;;;;;;1.10;1.10;;;;;;;21.24;48.65;101661.06;5959987;29;20194;-75
2021/08/05 09:12:46;;;;;;;1.00;1.00;;;;;;;21.05;50.23;101645.94;5960252;30;20194;-76
2021/08/05 09:15:51;;;;;;;0.90;0.90;;;;;;;21.21;49.24;101662.44;5959886;29;20257;-76
2021/08/05 09:18:57;;;;;;;0.95;0.95;;;;;;;21.34;48.98;101663.09;5959689;30;20268;-76
2021/08/05 09:22:02;;;;;;;1.00;1.00;;;;;;;21.45;48.13;101667.56;5960289;30;20230;-76
2021/08/05 09:25:24;;;;;;;1.00;1.00;;;;;;;21.54;47.32;101660.41;5960832;30;20200;-76
2021/08/05 09:28:30;;;;;;;1.20;1.20;;;;;;;21.60;46.43;101664.88;5959908;29;20261;-76
2021/08/05 09:31:36;;;;;;;1.38;1.38;;;;;;;21.49;45.79;101663.16;5959581;30;20245;-75
2021/08/05 09:34:43;;;;;;;0.98;0.98;;;;;;;21.61;45.49;101663.78;5959888;29;20217;-76
2021/08/05 09:37:47;;;;;;;2.05;1.23;;;;;;;21.70;45.56;101664.91;5958197;30;20525;-76
2021/08/05 09:41:09;;;;;;;6.80;1.17;;;;;;;21.78;46.52;101667.19;5958831;29;20413;-75
2021/08/05 09:44:18;;;;;;;0.80;0.80;;;;;;;21.85;44.10;101667.78;5959554;30;20230;-76
2021/08/05 09:47:23;;;;;;;1.00;1.00;;;;;;;21.86;45.24;101675.03;5959314;29;20264;-75
2021/08/05 09:50:27;;;;;;;0.88;0.88;;;;;;;21.81;45.34;101667.47;5958349;30;20194;-74
2021/08/05 09:53:35;;;;;;;1.25;1.25;;;;;;;21.89;47.12;101679.22;5958178;29;20209;-75
2021/08/05 09:56:39;;;;;;;1.42;1.10;;;;;;;21.90;47.22;101670.63;5959265;30;20253;-74
2021/08/05 09:59:55;;;;;;;1.63;1.10;;;;;;;21.96;48.15;101669.50;5957992;30;20216;-75
2021/08/05 10:02:59;;;;;;;1.38;0.85;;;;;;;22.12;46.09;101668.47;5958305;30;20250;-76
2021/08/05 10:06:08;;;;;;;0.80;0.80;;;;;;;22.10;43.67;101667.91;5957819;30;20237;-76
2021/08/05 10:09:21;;;;;;;1.10;1.10;;;;;;;22.20;44.08;101676.25;5958983;30;20197;-75
2021/08/05 10:12:30;;;;;;;0.90;0.90;;;;;;;22.11;43.81;101677.09;5957355;30;20311;-74
2021/08/05 10:15:36;;;;;;;0.90;0.90;;;;;;;22.00;42.99;101670.66;5958460;30;20193;-75
2021/08/05 10:18:41;;;;;;;0.90;0.90;;;;;;;21.98;43.78;101672.84;5957168;30;20458;-75
2021/08/05 10:21:48;;;;;;;0.80;0.80;;;;;;;22.04;44.77;101668.97;5958006;29;20243;-75
2021/08/05 10:24:52;;;;;;;0.90;0.90;;;;;;;22.03;44.70;101669.28;5957370;30;20504;-74
2021/08/05 10:28:00;;;;;;;1.45;1.17;;;;;;;21.99;45.72;101668.13;5957139;30;20388;-75
2021/08/05 10:31:12;;;;;;;1.08;0.90;;;;;;;22.07;45.79;101671.22;5958264;30;20247;-76
2021/08/05 10:34:19;;;;;;;2.38;0.90;;;;;;;21.78;44.62;101651.34;5958602;29;20214;-77
2021/08/05 10:37:29;;;;;;;3.13;1.20;;;;;;;22.01;45.77;101661.19;5956992;30;20221;-76
2021/08/05 10:40:33;;;;;;;1.08;1.08;;;;;;;22.08;44.92;101656.22;5958324;30;20202;-76
2021/08/05 10:43:38;;;;;;;0.98;0.98;;;;;;;21.97;44.31;101660.09;5957398;29;20291;-76
2021/08/05 10:46:48;;;;;;;0.70;0.70;;;;;;;22.05;44.65;101656.78;5957236;30;20201;-76
2021/08/05 10:49:54;;;;;;;0.98;0.98;;;;;;;22.10;44.33;101664.28;5958142;30;20198;-76
2021/08/05 10:52:59;;;;;;;1.38;1.38;;;;;;;22.18;45.39;101667.38;5957905;30;20194;-75
2021/08/05 10:56:21;;;;;;;0.88;0.88;;;;;;;22.17;44.33;101665.69;5958156;30;20194;-76
2021/08/05 10:59:25;;;;;;;1.60;1.00;;;;;;;22.20;44.14;101659.59;5957764;30;20229;-76
2021/08/05 11:02:49;;;;;;;2.25;0.90;;;;;;;22.26;43.34;101655.69;5957520;29;20298;-76
2021/08/05 11:05:54;;;;;;;2.95;1.00;;;;;;;22.31;41.84;101654.88;5956869;30;20238;-76
2021/08/05 11:09:30;;;;;;;1.45;0.90;;;;;;;22.18;42.57;101649.84;5957899;29;20269;-76
2021/08/05 11:12:40;;;;;;;1.00;1.00;;;;;;;22.39;43.68;101646.81;5957862;30;20194;-76
2021/08/05 11:15:52;;;;;;;1.40;1.20;;;;;;;22.51;42.50;101649.34;5956641;30;20473;-76
2021/08/05 11:19:21;;;;;;;1.67;1.00;;;;;;;22.58;43.13;101654.63;5956401;30;20228;-76
2021/08/05 11:22:52;;;;;;;0.90;0.90;;;;;;;22.52;41.48;101652.97;5957751;30;20192;-76
2021/08/05 11:26:04;;;;;;;1.38;1.00;;;;;;;22.55;41.79;101660.75;5957356;30;20219;-75
2021/08/05 11:29:28;;;;;;;1.73;1.17;;;;;;;22.69;42.18;101645.22;5956678;30;20263;-75
2021/08/05 11:32:39;;;;;;;1.00;1.00;;;;;;;22.64;41.91;101654.41;5959023;29;20201;-76
2021/08/05 11:36:25;;;;;;;0.93;0.93;;;;;;;22.64;41.80;101653.56;5962596;30;20291;-76
2021/08/05 11:39:49;;;;;;;0.90;0.90;;;;;;;22.64;41.59;101653.56;5961085;30;20579;-76
2021/08/05 11:43:18;;;;;;;1.85;1.00;;;;;;;22.57;41.44;101658.53;5962675;29;20257;-76
2021/08/05 11:46:22;;;;;;;0.95;0.95;;;;;;;22.63;42.39;101657.44;5961875;30;20193;-76
2021/08/05 11:49:33;;;;;;;0.77;0.77;;;;;;;22.66;41.27;101640.22;5962286;30;20201;-75
2021/08/05 11:52:41;;;;;;;0.82;0.82;;;;;;;22.63;40.11;101651.88;5961645;30;20201;-75
2021/08/05 11:55:47;;;;;;;0.82;0.82;;;;;;;22.72;40.17;101633.53;5961930;30;20201;-76
2021/08/05 11:58:51;;;;;;;0.80;0.80;;;;;;;22.71;39.68;101631.84;5961814;30;20294;-75
2021/08/05 12:02:06;;;;;;;0.75;0.75;;;;;;;22.70;39.07;101633.00;5961711;29;20209;-75
2021/08/05 12:05:12;;;;;;;0.88;0.80;;;;;;;22.78;38.87;101635.19;5961410;30;20256;-74
2021/08/05 12:08:22;;;;;;;1.10;1.10;;;;;;;22.82;38.66;101633.53;5961450;30;20198;-75
2021/08/05 12:11:28;;;;;;;0.90;0.90;;;;;;;22.70;37.80;101630.22;5961519;30;20220;-75
2021/08/05 12:14:33;;;;;;;0.80;0.80;;;;;;;22.89;38.86;101639.63;5961831;30;20200;-76
2021/08/05 12:17:46;;;;;;;0.90;0.90;;;;;;;22.70;38.37;101630.22;5960904;30;20194;-75
2021/08/05 12:20:55;;;;;;;0.70;0.70;;;;;;;22.58;38.93;101629.59;5960072;30;20393;-74
2021/08/05 12:24:00;;;;;;;0.80;0.80;;;;;;;22.60;40.84;101630.19;5961387;30;20198;-74
2021/08/05 12:27:05;;;;;;;0.98;0.98;;;;;;;22.65;40.99;101624.66;5961198;30;20194;-75
2021/08/05 12:30:10;;;;;;;1.40;0.80;;;;;;;22.68;40.49;101626.84;5960998;30;20205;-75
2021/08/05 12:33:21;;;;;;;0.90;0.90;;;;;;;22.77;40.47;101625.19;5960340;30;20197;-75
2021/08/05 12:36:27;;;;;;;0.90;0.90;;;;;;;22.78;39.77;101637.97;5960005;29;20210;-75
2021/08/05 12:39:33;;;;;;;0.80;0.80;;;;;;;22.77;39.40;101625.19;5959723;30;20249;-75
2021/08/05 12:42:39;;;;;;;0.80;0.80;;;;;;;22.77;39.62;101625.19;5960142;29;20193;-75
2021/08/05 12:45:47;;;;;;;1.75;0.90;;;;;;;22.75;39.55;101627.44;5960364;30;20341;-74
2021/08/05 12:48:55;;;;;;;0.70;0.70;;;;;;;22.84;39.88;101631.31;5960078;30;20323;-74
2021/08/05 12:52:03;;;;;;;0.90;0.90;;;;;;;22.80;38.40;101619.06;5959538;30;20275;-74
2021/08/05 12:55:09;;;;;;;0.80;0.80;;;;;;;22.75;39.02;101627.44;5958882;30;20201;-74
2021/08/05 12:58:17;;;;;;;0.82;0.82;;;;;;;22.78;39.88;101624.06;5958804;30;20216;-74
2021/08/05 13:01:22;;;;;;;0.95;0.95;;;;;;;22.82;39.80;101627.97;5959470;30;20218;-74
2021/08/05 13:04:28;;;;;;;1.00;1.00;;;;;;;22.86;39.20;101613.22;5958607;30;20371;-75
2021/08/05 13:07:41;;;;;;;0.82;0.82;;;;;;;22.78;39.48;101611.00;5959591;30;20257;-75
2021/08/05 13:10:47;;;;;;;1.02;1.02;;;;;;;22.93;38.33;101618.50;5959731;30;20198;-75
2021/08/05 13:13:53;;;;;;;0.90;0.90;;;;;;;23.02;38.51;101605.69;5959788;30;20204;-75
2021/08/05 13:17:06;;;;;;;2.38;0.80;;;;;;;23.01;39.42;101604.00;5958919;30;20363;-75
2021/08/05 13:20:20;;;;;;;0.80;0.80;;;;;;;22.82;39.13;101605.72;5959768;30;20225;-75
2021/08/05 13:23:28;;;;;;;1.05;1.02;;;;;;;23.10;39.33;101601.47;5960024;30;20201;-75
2021/08/05 13:26:34;;;;;;;0.70;0.70;;;;;;;23.14;39.18;101603.41;5958751;29;20509;-75
2021/08/05 13:29:41;;;;;;;0.90;0.90;;;;;;;23.23;39.28;101600.91;5959545;30;20194;-75
2021/08/05 13:32:46;;;;;;;0.80;0.80;;;;;;;23.12;39.47;101605.66;5959325;30;20201;-76
2021/08/05 13:35:52;;;;;;;0.70;0.70;;;;;;;23.12;39.13;101602.88;5959305;30;20260;-75
2021/08/05 13:38:57;;;;;;;2.50;1.08;;;;;;;23.15;38.84;101605.09;5959019;30;20378;-75
2021/08/05 13:42:06;;;;;;;0.80;0.80;;;;;;;23.11;39.07;101598.44;5958340;30;20194;-75
2021/08/05 13:45:11;;;;;;;2.38;0.88;;;;;;;23.31;39.28;101595.59;5958366;30;20194;-75
2021/08/05 13:48:17;;;;;;;1.55;1.08;;;;;;;23.38;38.76;101604.50;5959275;30;20226;-75
2021/08/05 13:51:21;;;;;;;0.80;0.80;;;;;;;23.22;37.55;101611.19;5958546;30;20229;-75
2021/08/05 13:54:25;;;;;;;1.30;1.20;;;;;;;23.19;38.77;101606.19;5957394;30;20198;-75
2021/08/05 13:57:31;;;;;;;0.80;0.80;;;;;;;23.18;39.27;101604.53;5959113;30;20197;-76
2021/08/05 14:00:36;;;;;;;0.80;0.80;;;;;;;23.13;39.55;101601.75;5958057;30;20528;-75
2021/08/05 14:03:40;;;;;;;0.80;0.80;;;;;;;23.19;39.40;101610.94;5958842;30;20272;-76
2021/08/05 14:06:44;;;;;;;3.30;0.60;;;;;;;23.54;38.78;101597.75;5958165;30;20256;-76
2021/08/05 14:09:49;;;;;;;3.10;0.95;;;;;;;24.32;37.87;101592.28;5958695;30;20198;-75
2021/08/05 14:12:55;;;;;;;0.90;0.90;;;;;;;24.93;36.33;101591.81;5958970;30;20205;-75
2021/08/05 14:15:59;;;;;;;0.82;0.82;;;;;;;24.59;36.69;101598.22;5958835;30;20193;-75
2021/08/05 14:19:03;;;;;;;0.80;0.80;;;;;;;24.69;35.21;101606.50;5958356;30;20194;-76
2021/08/05 14:22:10;;;;;;;0.75;0.75;;;;;;;24.31;35.74;101587.88;5957847;30;20221;-75
2021/08/05 14:25:14;;;;;;;0.90;0.90;;;;;;;24.23;36.36;101594.88;5958619;30;20225;-75
2021/08/05 14:28:20;;;;;;;0.98;0.90;;;;;;;24.03;36.67;101589.41;5958437;30;20200;-75